Архив погоды в Красной Поляне

Метеограмма Красная Поляна
Вторник, 14 Августа
Время местн. Темп Ветер Видим Явления Облачность нижн/средн/верх Атм. давл. Влжн Точка росы ВНГО R Сост. почвы Tg s
Напр Скр Прв ур.ст ур.м изм
15:00 +27° Ю-З 3 - 20 км - переменная облачность 711 758 -0.8 58% +18° 2 км - - - -
12:00 +25.2° Ю-З 3 - 20 км - незначительная облачность 712 759 -0.9 47% +13.1° 2 км - - - -
09:00 +19.6° Ю,Ю-З 1 - 20 км - ясно 713 761 0 62% +12.1° более 2.5 км - - - -
06:00 +13.4° В 1 - 20 км - ясно 713 762 +0.1 91% +12° более 2.5 км - Влажная (без луж) - -
03:00 +14.7° С,С-В 1 - 20 км - ясно 713 762 -0.1 83% +11.8° более 2.5 км - - - -
00:00 +16.2° С 2 - 20 км - ясно 713 761 -0.1 84% +13.5° более 2.5 км - - - -
Понедельник, 13 Августа
Время местн. Темп Ветер Видим Явления Облачность нижн/средн/верх Атм. давл. Влжн Точка росы ВНГО R Сост. почвы Tg s
Напр Скр Прв ур.ст ур.м изм
21:00 +18.3° С 2 - 14 км - переменная облачность 713 761 +0.9 81% +15° 1 км - - - -
18:00 +22.1° З 1 - 18 км - переменная облачность 712 759 -0.1 70% +16.4° 1 км - - - -
15:00 +24.2° Ю-З 3 - 17 км - облачно с прояснениями 712 759 -0.4 56% +14.9° 1 км - - - -
12:00 +24.1° Ю-З 3 - 20 км - переменная облачность 712 760 -0.7 49% +12.7° 1.5 км - - - -
09:00 +19.1° Ю,Ю-З 1 - 20 км - незначительная облачность 713 761 -0.1 71% +13.7° 2 км - - - -
06:00 +13.7° С,С-В 2 - 20 км - ясно 713 762 -0.2 96% +13.1° более 2.5 км - Влажная (без луж) - -
03:00 +14.1° штиль 0 - 19 км - ясно 713 762 -0.2 100% +14.1° более 2.5 км - - - -
00:00 +15.6° С,С-В 1 - 20 км - переменная облачность 714 762 +0.1 99% +15.4° - - - - -
Воскресенье, 12 Августа
Время местн. Темп Ветер Видим Явления Облачность нижн/средн/верх Атм. давл. Влжн Точка росы ВНГО R Сост. почвы Tg s
Напр Скр Прв ур.ст ур.м изм
21:00 +17.3° В 1 - 8 км небо без изменений {ливневые осадки} облачно 713 762 +0.7 100% +17.3° 100 м - - - -
18:00 +18.3° З,Ю-З 1 - 20 км небо без изменений {ливневые осадки} облачно с прояснениями 713 761 +0.1 99% +18.1° 1 км - - - -
15:00 +18.4° Ю 1 - 20 км небо без изменений {гроза, ливневые осадки} преимущественно облачно 713 761 +1.7 87% +16.2° 1 км - - - -
12:00 +25.1° Ю-З 3 - 20 км - переменная облачность 711 758 -0.4 57% +16° 1 км - - - -
09:00 +21.8° Ю,Ю-З 1 - 20 км - переменная облачность 711 759 -0.3 62% +14.2° 1.5 км - - - -
06:00 +15.1° В 1 - 20 км - незначительная облачность 712 760 -0.5 91% +13.6° - - Влажная (без луж) - -
03:00 +15.6° С-В 1 - 20 км - ясно 712 761 -0.7 90% +14° более 2.5 км - - - -
00:00 +17.1° С,С-В 1 - 10 км - облачно 713 761 -0.1 83% +14.2° - - - - -
Суббота, 11 Августа
Время местн. Темп Ветер Видим Явления Облачность нижн/средн/верх Атм. давл. Влжн Точка росы ВНГО R Сост. почвы Tg s
Напр Скр Прв ур.ст ур.м изм
21:00 +19.6° С,С-В 1 - 20 км - незначительная облачность 713 761 +0.5 73% +14.6° - - - - -
18:00 +22.3° В,С-В 1 - 20 км - преимущественно облачно 712 760 +0.2 61% +14.4° 1 км - - - -
15:00 +25.6° Ю-З 2 - 19 км - облачно с прояснениями 712 759 -0.7 53% +15.3° 1.5 км - - - -
12:00 +25.3° Ю-З 3 - 20 км - переменная облачность 713 760 -0.8 42% +11.5° 1.5 км - - - -